Westby, North Dakota
Current Conditions -  °F | °C
As of 6:52 PM on Wednesday 17 Dec 2014 (Local Time) from KISN Reporting Station
Overcast Overcast  
Wind Chill:   Ceiling: 1500
Heat Index: 20°   Visibility: 10mi
Dew Point: 13°   Wind: 9mph
Humidity: 74%   Direction: 150°SSE
Pressure: 30.09"   Gusts: NA
Location:  48.5901°N, 103.922°W
Report Text: KISN 180052Z AUTO 15008KT 10SM OVC015 M07/M11 A3009 RMK AO2 SLP225 T10671106
Loading
Personal Weather Stations






























Interactive Weather Map New forecast layout! Learn more

10-Day Weather Forecast

Advertisements
Track Severe Weather on mobile